Greifswald — 3FEC8 — position and weather

sailwx.info

Track history (hours):
 
Tides and Currents Weather Stations Pressure Air Temp Water Temp Dewpoint Dewpoint Depression Visibility Wind Speed Wind Dir Waves Ship Positions

Greifswald

Last reported at 2016-Jul-21 04:33 UTC. Time now 2016-Jul-23 17:02 UTC.
Position N 44°34' E 033°04'.

Length 191 m; draft 6.6 m.

Type: Ship. MMSI: 370492000.

Date/timePositionNaut miles runAvg speedWind from/ knotsBaromVisibWave heightAir tempDewpointWater temp
2016-Jul-21 04:33N 44°34' E 033°04'11614.5
2016-Jul-20 20:34N 45°60' E 031°14'1414.2
2016-Jul-20 19:34N 46°11' E 031°01'1414.1
2016-Jul-20 18:34N 46°18' E 030°44'4 3.9
2016-Jul-20 17:34N 46°21' E 030°39'0 0.0
2016-Jul-20 16:30N 46°21' E 030°39'0 0.0
2016-Jul-20 15:33N 46°21' E 030°39'0 0.0
2016-Jul-20 14:34N 46°21' E 030°39'0 0.0
2016-Jul-20 13:34N 46°21' E 030°39'0 0.0
2016-Jul-20 12:31N 46°21' E 030°39'0 0.0
2016-Jul-20 11:34N 46°21' E 030°39'0 0.0
2016-Jul-20 10:33N 46°21' E 030°39'0 0.0
2016-Jul-20 09:32N 46°21' E 030°39'0 0.0
2016-Jul-20 08:28N 46°21' E 030°39'0 0.0
2016-Jul-20 07:33N 46°21' E 030°39'0 0.0
2016-Jul-20 06:34N 46°21' E 030°39'0 0.0
2016-Jul-20 05:33N 46°21' E 030°39'0 0.0
2016-Jul-20 04:34N 46°21' E 030°39'0 0.0
2016-Jul-20 03:34N 46°21' E 030°39'0 0.0
2016-Jul-20 02:34N 46°21' E 030°39'0 0.0
2016-Jul-20 01:34N 46°21' E 030°39'0 0.0
2016-Jul-20 00:34N 46°21' E 030°39'0 0.0
2016-Jul-19 23:34N 46°21' E 030°39'0 0.0
2016-Jul-19 22:34N 46°21' E 030°39'0 0.0
2016-Jul-19 21:34N 46°21' E 030°39'0 0.0
2016-Jul-19 20:34N 46°21' E 030°39'13 2.5
2016-Jul-19 15:32N 46°11' E 030°51'1111.1
2016-Jul-19 14:34N 46°10' E 031°06'1211.4
2016-Jul-19 13:29N 46°01' E 031°19'10811.6
2016-Jul-19 04:06N 44°40' E 033°01'713.4
2016-Jul-19 03:33N 44°34' E 033°08'9112.9
2016-Jul-18 20:34N 43°47' E 034°56'7813.1
2016-Jul-18 14:33N 43°16' E 036°35'14112.7
2016-Jul-18 03:26N 42°21' E 039°32'  
2016-Jul-15 04:31N 42°48' E 037°56'1514.3
2016-Jul-15 03:28N 42°54' E 037°38'1314.3
2016-Jul-15 02:34N 42°59' E 037°22'1714.4
2016-Jul-15 01:22N 43°06' E 036°60'1214.6
2016-Jul-15 00:33N 43°11' E 036°45'1514.7
2016-Jul-14 23:33N 43°16' E 036°26'1514.6
2016-Jul-14 22:33N 43°22' E 036°08'1414.4
2016-Jul-14 21:33N 43°28' E 035°50'1414.3
2016-Jul-14 20:33N 43°33' E 035°32'1414.2
2016-Jul-14 19:34N 43°39' E 035°14'1414.0
2016-Jul-14 18:34N 43°44' E 034°56'1413.9
2016-Jul-14 17:33N 43°50' E 034°38'1413.7
2016-Jul-14 16:34N 43°55' E 034°21'5612.8
2016-Jul-14 12:12N 44°25' E 033°15'813.2
2016-Jul-14 11:33N 44°32' E 033°07'1212.5
2016-Jul-14 10:33N 44°41' E 032°56'7412.3
2016-Jul-14 04:33N 45°36' E 031°45'1212.0
2016-Jul-14 03:34N 45°44' E 031°32'2712.0
2016-Jul-14 01:17N 46°04' E 031°06'912.4
2016-Jul-14 00:33N 46°12' E 030°59'1212.0
2016-Jul-13 23:33N 46°18' E 030°44'1 0.1
2016-Jul-13 04:07N 46°19' E 030°43'712.9
2016-Jul-13 03:33N 46°17' E 030°53'1110.6
2016-Jul-13 02:34N 46°11' E 031°05'1111.0
2016-Jul-13 01:33N 46°03' E 031°16'1110.9
2016-Jul-13 00:33N 45°55' E 031°27'1110.9
2016-Jul-12 23:33N 45°47' E 031°38'1111.0
2016-Jul-12 22:33N 45°39' E 031°48'1111.1
2016-Jul-12 21:33N 45°30' E 031°58'1311.0
2016-Jul-12 20:22N 45°20' E 032°10'910.9
2016-Jul-12 19:33N 45°14' E 032°18'4511.0
2016-Jul-12 15:27N 44°40' E 033°01'1011.6
2016-Jul-12 14:33N 44°32' E 033°11'90 8.8
2016-Jul-12 04:19N 43°46' E 034°58'911.2
2016-Jul-12 03:31N 43°43' E 035°10'1311.0
2016-Jul-12 02:18N 43°38' E 035°27'  
Track history (hours):
 
Tides and Currents Weather Stations Pressure Air Temp Water Temp Dewpoint Dewpoint Depression Visibility Wind Speed Wind Dir Waves Ship Positions

Greifswald

Last reported at 2016-Jul-21 04:33 UTC. Time now 2016-Jul-23 17:02 UTC.
Position N 44°34' E 033°04'.

Length 191 m; draft 6.6 m.

Type: Ship. MMSI: 370492000.

Date/timePositionNaut miles runAvg speedWind from/ knotsBaromVisibWave heightAir tempDewpointWater temp
2016-Jul-21 04:33N 44°34' E 033°04'11614.5
2016-Jul-20 20:34N 45°60' E 031°14'1414.2
2016-Jul-20 19:34N 46°11' E 031°01'1414.1
2016-Jul-20 18:34N 46°18' E 030°44'4 3.9
2016-Jul-20 17:34N 46°21' E 030°39'0 0.0
2016-Jul-20 16:30N 46°21' E 030°39'0 0.0
2016-Jul-20 15:33N 46°21' E 030°39'0 0.0
2016-Jul-20 14:34N 46°21' E 030°39'0 0.0
2016-Jul-20 13:34N 46°21' E 030°39'0 0.0
2016-Jul-20 12:31N 46°21' E 030°39'0 0.0
2016-Jul-20 11:34N 46°21' E 030°39'0 0.0
2016-Jul-20 10:33N 46°21' E 030°39'0 0.0
2016-Jul-20 09:32N 46°21' E 030°39'0 0.0
2016-Jul-20 08:28N 46°21' E 030°39'0 0.0
2016-Jul-20 07:33N 46°21' E 030°39'0 0.0
2016-Jul-20 06:34N 46°21' E 030°39'0 0.0
2016-Jul-20 05:33N 46°21' E 030°39'0 0.0
2016-Jul-20 04:34N 46°21' E 030°39'0 0.0
2016-Jul-20 03:34N 46°21' E 030°39'0 0.0
2016-Jul-20 02:34N 46°21' E 030°39'0 0.0
2016-Jul-20 01:34N 46°21' E 030°39'0 0.0
2016-Jul-20 00:34N 46°21' E 030°39'0 0.0
2016-Jul-19 23:34N 46°21' E 030°39'0 0.0
2016-Jul-19 22:34N 46°21' E 030°39'0 0.0
2016-Jul-19 21:34N 46°21' E 030°39'0 0.0
2016-Jul-19 20:34N 46°21' E 030°39'13 2.5
2016-Jul-19 15:32N 46°11' E 030°51'1111.1
2016-Jul-19 14:34N 46°10' E 031°06'1211.4
2016-Jul-19 13:29N 46°01' E 031°19'10811.6
2016-Jul-19 04:06N 44°40' E 033°01'713.4
2016-Jul-19 03:33N 44°34' E 033°08'9112.9
2016-Jul-18 20:34N 43°47' E 034°56'7813.1
2016-Jul-18 14:33N 43°16' E 036°35'14112.7
2016-Jul-18 03:26N 42°21' E 039°32'  
2016-Jul-15 04:31N 42°48' E 037°56'1514.3
2016-Jul-15 03:28N 42°54' E 037°38'1314.3
2016-Jul-15 02:34N 42°59' E 037°22'1714.4
2016-Jul-15 01:22N 43°06' E 036°60'1214.6
2016-Jul-15 00:33N 43°11' E 036°45'1514.7
2016-Jul-14 23:33N 43°16' E 036°26'1514.6
2016-Jul-14 22:33N 43°22' E 036°08'1414.4
2016-Jul-14 21:33N 43°28' E 035°50'1414.3
2016-Jul-14 20:33N 43°33' E 035°32'1414.2
2016-Jul-14 19:34N 43°39' E 035°14'1414.0
2016-Jul-14 18:34N 43°44' E 034°56'1413.9
2016-Jul-14 17:33N 43°50' E 034°38'1413.7
2016-Jul-14 16:34N 43°55' E 034°21'5612.8
2016-Jul-14 12:12N 44°25' E 033°15'813.2
2016-Jul-14 11:33N 44°32' E 033°07'1212.5
2016-Jul-14 10:33N 44°41' E 032°56'7412.3
2016-Jul-14 04:33N 45°36' E 031°45'1212.0
2016-Jul-14 03:34N 45°44' E 031°32'2712.0
2016-Jul-14 01:17N 46°04' E 031°06'912.4
2016-Jul-14 00:33N 46°12' E 030°59'1212.0
2016-Jul-13 23:33N 46°18' E 030°44'1 0.1
2016-Jul-13 04:07N 46°19' E 030°43'712.9
2016-Jul-13 03:33N 46°17' E 030°53'1110.6
2016-Jul-13 02:34N 46°11' E 031°05'1111.0
2016-Jul-13 01:33N 46°03' E 031°16'1110.9
2016-Jul-13 00:33N 45°55' E 031°27'1110.9
2016-Jul-12 23:33N 45°47' E 031°38'1111.0
2016-Jul-12 22:33N 45°39' E 031°48'1111.1
2016-Jul-12 21:33N 45°30' E 031°58'1311.0
2016-Jul-12 20:22N 45°20' E 032°10'910.9
2016-Jul-12 19:33N 45°14' E 032°18'4511.0
2016-Jul-12 15:27N 44°40' E 033°01'1011.6
2016-Jul-12 14:33N 44°32' E 033°11'90 8.8
2016-Jul-12 04:19N 43°46' E 034°58'911.2
2016-Jul-12 03:31N 43°43' E 035°10'1311.0
2016-Jul-12 02:18N 43°38' E 035°27'  

Dump ship's entire track history